Sheikhupura Weather



Sheikhupura's Current Weather

Temprature 32o smoke

smoke

Rain: 0 %

Min Temprature32o
Max Temprature32o
Humidity79
Wind Speed4.1 m/h
Sun Rise05:27:54
Sun Set18:50:08
Current Time: 13-Aug-2020 19:52:08
Lat/Lon: 31.71, 73.98




Sheikhupura's Geo Location



Sheikhupura's Weather Forecast

Time Overall Temp Min Temp Max Temp Humidity Wind Speed Rain
13-Aug-2020 (Thu)
20:00:00 very heavy rain 30.460 28.850 30.460 83 6.26 m/h 5,673 %
23:00:00 overcast clouds 30.200 29.710 30.200 74 3.8 m/h 0 %
14-Aug-2020 (Fri)
02:00:00 overcast clouds 28.860 28.640 28.860 83 4.49 m/h 0 %
05:00:00 overcast clouds 27.680 27.650 27.680 84 4.99 m/h 0 %
08:00:00 light rain 28.690 28.690 28.690 79 3.54 m/h 120 %
11:00:00 few clouds 34.280 34.280 34.280 55 2.88 m/h 0 %
14:00:00 clear sky 38.460 38.460 38.460 42 0.6 m/h 0 %
17:00:00 few clouds 37.640 37.640 37.640 43 1.38 m/h 0 %
20:00:00 broken clouds 34.300 34.300 34.300 54 3.54 m/h 0 %
23:00:00 scattered clouds 32.520 32.520 32.520 60 3.28 m/h 0 %
15-Aug-2020 (Sat)
02:00:00 clear sky 31.230 31.230 31.230 67 3.24 m/h 0 %
05:00:00 clear sky 30.140 30.140 30.140 71 3.16 m/h 0 %
08:00:00 light rain 31.650 31.650 31.650 65 3.18 m/h 102 %
11:00:00 clear sky 36.840 36.840 36.840 46 2.72 m/h 0 %
14:00:00 scattered clouds 39.480 39.480 39.480 39 0.69 m/h 0 %
17:00:00 scattered clouds 39.140 39.140 39.140 38 1.84 m/h 0 %
20:00:00 few clouds 34.900 34.900 34.900 50 5.1 m/h 0 %
23:00:00 clear sky 33.540 33.540 33.540 54 3.96 m/h 0 %
16-Aug-2020 (Sun)
02:00:00 light rain 31.690 31.690 31.690 63 3.08 m/h 42 %
05:00:00 few clouds 31.170 31.170 31.170 67 2.29 m/h 0 %
08:00:00 light rain 32.320 32.320 32.320 64 3.24 m/h 10 %
11:00:00 light rain 36.400 36.400 36.400 50 1.77 m/h 93 %
14:00:00 scattered clouds 38.560 38.560 38.560 42 1.12 m/h 0 %
17:00:00 scattered clouds 38.750 38.750 38.750 41 1.23 m/h 0 %
20:00:00 clear sky 35.080 35.080 35.080 52 3.22 m/h 0 %
23:00:00 clear sky 33.450 33.450 33.450 56 3.18 m/h 0 %
17-Aug-2020 (Mon)
02:00:00 light rain 31.920 31.920 31.920 63 2.83 m/h 45 %
05:00:00 light rain 29.620 29.620 29.620 75 3.6 m/h 185 %
08:00:00 clear sky 31.780 31.780 31.780 69 4.55 m/h 0 %
11:00:00 moderate rain 36.520 36.520 36.520 50 2.9 m/h 366 %
14:00:00 broken clouds 39.250 39.250 39.250 41 0.67 m/h 0 %
17:00:00 broken clouds 38.450 38.450 38.450 43 2.28 m/h 0 %
20:00:00 light rain 33.590 33.590 33.590 59 4.26 m/h 14 %
23:00:00 light rain 32.160 32.160 32.160 64 3.07 m/h 44 %
18-Aug-2020 (Tue)
02:00:00 light rain 31.080 31.080 31.080 69 2.54 m/h 43 %
05:00:00 light rain 29.960 29.960 29.960 76 2.47 m/h 285 %
08:00:00 overcast clouds 32.060 32.060 32.060 67 2.39 m/h 0 %
11:00:00 overcast clouds 35.930 35.930 35.930 52 2.04 m/h 0 %
14:00:00 broken clouds 38.270 38.270 38.270 44 2.47 m/h 0 %
17:00:00 broken clouds 37.580 37.580 37.580 46 4.03 m/h 0 %

Famous Cities (60)